Time;durP1;ratioP1;P1;durP2;ratioP2;P2;SDS_P1;SDS_P2;PMS_P1;PMS_P2;Temp;Humidity;BMP_temperature;BMP_pressure;BME280_temperature;BME280_humidity;BME280_pressure;Samples;Min_cycle;Max_cycle;Signal;HPM_P1;HPM_P2
2021/04/05 00:01:10;;;;;;;0.60;0.60;;;4.70;99.90;;;;;;6116766;23;20601;-79
2021/04/05 00:03:37;;;;;;;0.60;0.60;;;4.60;99.90;;;;;;6117215;23;20182;-79
2021/04/05 00:06:03;;;;;;;0.60;0.60;;;4.70;99.90;;;;;;6117054;23;20268;-79
2021/04/05 00:08:29;;;;;;;0.60;0.60;;;4.60;99.90;;;;;;6116631;23;20646;-79
2021/04/05 00:10:57;;;;;;;0.60;0.60;;;4.60;99.90;;;;;;6117050;23;20189;-79
2021/04/05 00:13:25;;;;;;;0.60;0.60;;;4.60;99.90;;;;;;6117179;23;20183;-78
2021/04/05 00:15:52;;;;;;;0.50;0.50;;;4.60;99.90;;;;;;6117062;23;20232;-79
2021/04/05 00:18:21;;;;;;;0.60;0.60;;;4.50;99.90;;;;;;6117171;23;20183;-79
2021/04/05 00:20:49;;;;;;;0.50;0.50;;;4.50;99.90;;;;;;6117013;23;20487;-79
2021/04/05 00:23:16;;;;;;;0.60;0.60;;;4.60;99.90;;;;;;6117215;23;20182;-79
2021/04/05 00:25:45;;;;;;;0.60;0.60;;;4.50;99.90;;;;;;6117106;23;20230;-79
2021/04/05 00:28:12;;;;;;;0.50;0.50;;;4.60;99.90;;;;;;6116951;23;20174;-79
2021/04/05 00:30:39;;;;;;;0.50;0.50;;;4.60;99.90;;;;;;6117094;23;20232;-79
2021/04/05 00:33:06;;;;;;;0.50;0.50;;;4.60;99.90;;;;;;6117230;23;20182;-79
2021/04/05 00:35:35;;;;;;;0.60;0.60;;;4.60;99.90;;;;;;6117247;23;20179;-79
2021/04/05 00:38:03;;;;;;;0.60;0.60;;;4.60;99.90;;;;;;6116806;23;20171;-79
2021/04/05 00:40:32;;;;;;;0.60;0.60;;;4.00;99.90;;;;;;6117070;23;20171;-79
2021/04/05 00:42:59;;;;;;;0.60;0.60;;;4.60;99.90;;;;;;6116716;23;20239;-79
2021/04/05 00:45:28;;;;;;;0.60;0.60;;;4.60;99.90;;;;;;6116595;23;20680;-79
2021/04/05 00:47:54;;;;;;;0.60;0.60;;;4.60;99.90;;;;;;6117060;23;20182;-79
2021/04/05 00:50:24;;;;;;;0.60;0.60;;;4.60;99.90;;;;;;6116630;23;20182;-79
2021/04/05 00:52:51;;;;;;;0.60;0.60;;;4.70;99.90;;;;;;6116926;22;20179;-79
2021/04/05 00:55:19;;;;;;;0.55;0.55;;;4.70;99.90;;;;;;6116525;23;20289;-79
2021/04/05 00:57:46;;;;;;;0.60;0.60;;;4.80;99.90;;;;;;6117054;23;20182;-79
2021/04/05 01:00:14;;;;;;;0.60;0.60;;;4.80;99.90;;;;;;6116736;23;20178;-79
2021/04/05 01:02:41;;;;;;;0.60;0.60;;;4.80;99.90;;;;;;6116903;23;20178;-79
2021/04/05 01:05:09;;;;;;;0.60;0.60;;;4.80;99.90;;;;;;6117025;23;20504;-80
2021/04/05 01:07:35;;;;;;;0.60;0.60;;;4.80;99.90;;;;;;6117097;23;20198;-79
2021/04/05 01:10:01;;;;;;;0.60;0.60;;;4.70;99.90;;;;;;6117004;23;20182;-80
2021/04/05 01:12:27;;;;;;;0.50;0.50;;;4.70;99.90;;;;;;6116970;23;20183;-79
2021/04/05 01:14:53;;;;;;;0.60;0.60;;;4.70;99.90;;;;;;6116832;23;20178;-79
2021/04/05 01:17:19;;;;;;;0.60;0.60;;;4.70;99.90;;;;;;6116959;23;20201;-79
2021/04/05 01:19:46;;;;;;;0.57;0.57;;;4.70;99.90;;;;;;6116585;23;20857;-79
2021/04/05 01:22:13;;;;;;;0.60;0.60;;;4.50;99.90;;;;;;6116712;23;20175;-79
2021/04/05 01:24:39;;;;;;;0.60;0.60;;;4.70;99.90;;;;;;6116744;23;20174;-79
2021/04/05 01:27:09;;;;;;;0.60;0.60;;;4.80;99.90;;;;;;6116940;23;20194;-79
2021/04/05 01:29:36;;;;;;;0.60;0.60;;;4.80;99.90;;;;;;6116483;23;20627;-79
2021/04/05 01:32:03;;;;;;;0.60;0.60;;;4.80;99.90;;;;;;6116446;23;20690;-79
2021/04/05 01:34:29;;;;;;;0.60;0.60;;;4.90;99.90;;;;;;6116798;23;20179;-79
2021/04/05 01:36:59;;;;;;;0.50;0.50;;;4.90;99.90;;;;;;6116807;23;20178;-79
2021/04/05 01:39:26;;;;;;;0.60;0.60;;;4.90;99.90;;;;;;6116687;23;20182;-79
2021/04/05 01:41:52;;;;;;;0.50;0.50;;;4.90;99.90;;;;;;6116850;23;20468;-79
2021/04/05 01:44:18;;;;;;;0.60;0.60;;;5.00;99.90;;;;;;6116974;23;20178;-79
2021/04/05 01:46:45;;;;;;;0.52;0.52;;;5.00;99.90;;;;;;6116658;23;20195;-79
2021/04/05 01:49:12;;;;;;;0.50;0.50;;;5.10;99.90;;;;;;6116949;23;20179;-79
2021/04/05 01:51:38;;;;;;;0.52;0.52;;;5.10;99.90;;;;;;6116697;23;20202;-79
2021/04/05 01:54:05;;;;;;;0.60;0.60;;;5.10;99.90;;;;;;6116936;23;20182;-80
2021/04/05 01:56:32;;;;;;;0.50;0.50;;;5.10;99.90;;;;;;6116431;23;20202;-79
2021/04/05 01:58:58;;;;;;;0.60;0.60;;;5.10;99.90;;;;;;6116342;23;20835;-80
2021/04/05 02:01:28;;;;;;;0.60;0.60;;;5.10;99.90;;;;;;6116624;23;20201;-80
2021/04/05 02:03:56;;;;;;;0.60;0.60;;;5.20;99.90;;;;;;6116668;23;20557;-80
2021/04/05 02:06:24;;;;;;;0.60;0.60;;;5.20;99.90;;;;;;6116267;23;20195;-80
2021/04/05 02:08:50;;;;;;;0.60;0.60;;;5.20;99.90;;;;;;6116911;23;20485;-80
2021/04/05 02:11:18;;;;;;;0.60;0.60;;;5.30;99.90;;;;;;6116482;23;20178;-81
2021/04/05 02:13:47;;;;;;;0.50;0.50;;;5.30;99.90;;;;;;6116628;23;20186;-80
2021/04/05 02:16:14;;;;;;;0.60;0.60;;;5.30;99.90;;;;;;6116728;23;20262;-81
2021/04/05 02:18:40;;;;;;;0.60;0.60;;;5.30;99.90;;;;;;6116654;23;20182;-80
2021/04/05 02:21:09;;;;;;;0.60;0.60;;;5.30;99.90;;;;;;6116822;23;20201;-80
2021/04/05 02:23:36;;;;;;;0.52;0.52;;;5.30;99.90;;;;;;6116239;23;20182;-81
2021/04/05 02:26:06;;;;;;;0.50;0.50;;;5.30;99.90;;;;;;6116559;23;20198;-80
2021/04/05 02:28:33;;;;;;;0.57;0.57;;;5.30;99.90;;;;;;6116271;23;20183;-79
2021/04/05 02:31:03;;;;;;;0.60;0.60;;;5.40;99.90;;;;;;6116390;23;20178;-79
2021/04/05 02:33:29;;;;;;;0.60;0.60;;;5.80;99.90;;;;;;6116238;23;20197;-79
2021/04/05 02:35:56;;;;;;;0.60;0.60;;;5.40;99.90;;;;;;6116132;23;20178;-79
2021/04/05 02:38:22;;;;;;;0.50;0.50;;;5.40;99.90;;;;;;6116291;23;20179;-80
2021/04/05 02:40:49;;;;;;;0.60;0.60;;;5.10;99.90;;;;;;6116301;23;20205;-80
2021/04/05 02:43:15;;;;;;;0.60;0.60;;;5.40;99.90;;;;;;6116489;23;20228;-79
2021/04/05 02:45:42;;;;;;;0.50;0.50;;;5.40;99.90;;;;;;6115798;23;20201;-79
2021/04/05 02:48:11;;;;;;;0.60;0.60;;;5.30;99.90;;;;;;6116452;23;20179;-79
2021/04/05 02:50:38;;;;;;;0.60;0.60;;;5.50;99.90;;;;;;6116400;23;20217;-80
2021/04/05 02:53:05;;;;;;;0.60;0.60;;;5.50;99.90;;;;;;6116157;23;20463;-80
2021/04/05 02:55:33;;;;;;;0.50;0.50;;;5.50;99.90;;;;;;6115936;23;20206;-80
2021/04/05 02:57:59;;;;;;;0.60;0.60;;;5.50;99.90;;;;;;6116367;23;20178;-80
2021/04/05 03:00:27;;;;;;;0.60;0.60;;;5.40;99.90;;;;;;6116244;23;20182;-80
2021/04/05 03:02:56;;;;;;;0.60;0.60;;;5.50;99.90;;;;;;6115801;23;20611;-81
2021/04/05 03:05:25;;;;;;;0.60;0.60;;;5.50;99.90;;;;;;6116189;23;20179;-80
2021/04/05 03:07:52;;;;;;;0.60;0.60;;;5.50;99.90;;;;;;6116229;23;20202;-80
2021/04/05 03:10:23;;;;;;;0.60;0.60;;;5.40;99.90;;;;;;6115893;23;20685;-81
2021/04/05 03:12:53;;;;;;;0.60;0.60;;;5.40;99.90;;;;;;6115831;23;20697;-81
2021/04/05 03:15:20;;;;;;;0.60;0.60;;;5.50;99.90;;;;;;6115835;23;20182;-80
2021/04/05 03:17:49;;;;;;;0.60;0.60;;;5.50;99.90;;;;;;6116385;23;20182;-80
2021/04/05 03:20:19;;;;;;;0.60;0.60;;;5.50;99.90;;;;;;6117364;23;20183;-81
2021/04/05 03:22:46;;;;;;;0.60;0.60;;;5.50;99.90;;;;;;6117125;23;20178;-81
2021/04/05 03:25:16;;;;;;;0.60;0.60;;;5.60;99.90;;;;;;6117627;23;20262;-80
2021/04/05 03:27:43;;;;;;;0.60;0.60;;;5.60;99.90;;;;;;6117688;23;20201;-79
2021/04/05 03:30:12;;;;;;;0.60;0.60;;;5.60;99.90;;;;;;6117045;23;20828;-79
2021/04/05 03:32:40;;;;;;;0.60;0.60;;;5.50;99.90;;;;;;6117277;23;20186;-80
2021/04/05 03:35:11;;;;;;;0.60;0.60;;;5.50;99.90;;;;;;6117204;23;20171;-79
2021/04/05 03:37:40;;;;;;;0.60;0.60;;;5.50;99.90;;;;;;6116982;23;20323;-80
2021/04/05 03:40:08;;;;;;;0.60;0.60;;;5.60;99.90;;;;;;6117458;23;20183;-80
2021/04/05 03:42:41;;;;;;;0.60;0.60;;;5.60;99.90;;;;;;6117385;23;20182;-80
2021/04/05 03:45:17;;;;;;;0.60;0.60;;;5.60;99.90;;;;;;6117417;23;20171;-80
2021/04/05 03:47:51;;;;;;;0.55;0.55;;;5.60;99.90;;;;;;6117449;23;20190;-80
2021/04/05 03:50:21;;;;;;;0.52;0.52;;;5.50;99.90;;;;;;6117517;23;20498;-80
2021/04/05 03:52:52;;;;;;;0.60;0.60;;;5.50;99.90;;;;;;6117528;23;20623;-80
2021/04/05 03:55:23;;;;;;;0.60;0.60;;;5.50;99.90;;;;;;6116923;23;20256;-80
2021/04/05 03:57:51;;;;;;;0.60;0.60;;;5.50;99.90;;;;;;6117192;23;20163;-80
2021/04/05 04:00:21;;;;;;;0.60;0.60;;;5.50;99.90;;;;;;6117207;23;20197;-80
2021/04/05 04:02:51;;;;;;;0.57;0.57;;;5.50;99.90;;;;;;6117349;23;20220;-80
2021/04/05 04:05:22;;;;;;;0.60;0.60;;;5.50;99.90;;;;;;6117546;23;20308;-80
2021/04/05 04:07:54;;;;;;;0.60;0.60;;;5.40;99.90;;;;;;6116817;23;20617;-80
2021/04/05 04:10:25;;;;;;;0.60;0.60;;;5.40;99.90;;;;;;6116986;23;20174;-80
2021/04/05 04:12:52;;;;;;;0.55;0.55;;;5.40;99.90;;;;;;6117210;23;20194;-80
2021/04/05 04:15:19;;;;;;;0.57;0.57;;;5.20;99.90;;;;;;6117206;23;20178;-81
2021/04/05 04:17:46;;;;;;;0.57;0.57;;;5.30;99.90;;;;;;6116922;23;20178;-80
2021/04/05 04:20:15;;;;;;;0.60;0.60;;;5.30;99.90;;;;;;6117084;23;20178;-80
2021/04/05 04:22:43;;;;;;;0.60;0.60;;;5.30;99.90;;;;;;6117128;23;20581;-81
2021/04/05 04:25:10;;;;;;;0.57;0.57;;;5.30;99.90;;;;;;6116943;23;20205;-80
2021/04/05 04:27:37;;;;;;;0.60;0.60;;;5.30;99.90;;;;;;6116769;23;20191;-81
2021/04/05 04:30:05;;;;;;;0.60;0.60;;;5.30;99.90;;;;;;6116391;23;20179;-81
2021/04/05 04:32:40;;;;;;;0.57;0.57;;;5.20;99.90;;;;;;6117016;23;20183;-81
2021/04/05 04:35:09;;;;;;;0.55;0.55;;;5.10;99.90;;;;;;6116855;23;20612;-81
2021/04/05 04:37:39;;;;;;;0.50;0.50;;;5.10;99.90;;;;;;6117353;23;20174;-80
2021/04/05 04:40:07;;;;;;;0.60;0.60;;;5.00;99.90;;;;;;6117298;23;20201;-80
2021/04/05 04:42:34;;;;;;;0.60;0.60;;;5.10;99.90;;;;;;6116808;23;20635;-80
2021/04/05 04:45:01;;;;;;;0.60;0.60;;;5.10;99.90;;;;;;6116947;23;20183;-80
2021/04/05 04:47:27;;;;;;;0.60;0.60;;;5.00;99.90;;;;;;6116798;23;20213;-80
2021/04/05 04:49:53;;;;;;;0.52;0.52;;;5.00;99.90;;;;;;6117004;23;20470;-80
2021/04/05 04:52:20;;;;;;;0.60;0.60;;;5.00;99.90;;;;;;6116616;23;20202;-80
2021/04/05 04:54:47;;;;;;;0.60;0.60;;;5.00;99.90;;;;;;6116760;23;20244;-80
2021/04/05 04:57:13;;;;;;;0.60;0.60;;;5.00;99.90;;;;;;6117096;23;20503;-80
2021/04/05 04:59:39;;;;;;;0.50;0.50;;;5.00;99.90;;;;;;6116688;23;20220;-80
2021/04/05 05:02:07;;;;;;;0.60;0.60;;;5.00;99.90;;;;;;6116507;23;20627;-80
2021/04/05 05:04:36;;;;;;;0.50;0.50;;;5.00;99.90;;;;;;6116978;23;20183;-80
2021/04/05 05:07:03;;;;;;;0.60;0.60;;;5.00;99.90;;;;;;6116863;23;20201;-80
2021/04/05 05:09:29;;;;;;;0.60;0.60;;;5.00;99.90;;;;;;6117055;23;20183;-81
2021/04/05 05:11:56;;;;;;;0.60;0.60;;;4.90;99.90;;;;;;6117022;23;20178;-80
2021/04/05 05:14:23;;;;;;;0.57;0.57;;;4.90;99.90;;;;;;6116433;23;20658;-80
2021/04/05 05:16:50;;;;;;;0.60;0.60;;;4.90;99.90;;;;;;6116643;23;20850;-80
2021/04/05 05:19:18;;;;;;;0.60;0.60;;;4.80;99.90;;;;;;6116655;23;20175;-80
2021/04/05 05:21:48;;;;;;;0.52;0.52;;;4.90;99.90;;;;;;6117061;23;20183;-80
2021/04/05 05:24:19;;;;;;;0.57;0.57;;;4.90;99.90;;;;;;6116796;23;20190;-80
2021/04/05 05:26:48;;;;;;;0.50;0.50;;;4.90;99.90;;;;;;6117802;23;20185;-80
2021/04/05 05:29:17;;;;;;;0.50;0.50;;;4.90;99.90;;;;;;6117235;23;20211;-80
2021/04/05 05:31:44;;;;;;;0.60;0.60;;;4.20;99.90;;;;;;6118145;23;20194;-81
2021/04/05 05:34:12;;;;;;;0.60;0.60;;;3.90;99.90;;;;;;6131381;23;20185;-80
2021/04/05 05:36:42;;;;;;;0.60;0.60;;;3.70;99.90;;;;;;6128711;23;20185;-80
2021/04/05 05:39:11;;;;;;;0.60;0.60;;;3.50;99.90;;;;;;6125646;23;20189;-81
2021/04/05 05:41:53;;;;;;;0.50;0.50;;;3.40;99.90;;;;;;6135432;23;20186;-81
2021/04/05 05:44:26;;;;;;;0.60;0.60;;;3.20;99.90;;;;;;6127786;23;20162;-80
2021/04/05 05:46:57;;;;;;;0.50;0.50;;;3.10;99.90;;;;;;6125311;23;20187;-81
2021/04/05 05:49:34;;;;;;;0.60;0.60;;;2.60;99.90;;;;;;6125455;23;20170;-81
2021/04/05 05:52:28;;;;;;;0.60;0.60;;;4.00;99.90;;;;;;6126167;23;20665;-81
2021/04/05 05:55:18;;;;;;;0.60;0.60;;;3.00;99.90;;;;;;6124827;23;20206;-81
2021/04/05 05:57:56;;;;;;;0.60;0.60;;;3.00;99.90;;;;;;6118345;23;20568;-81
2021/04/05 06:00:28;;;;;;;0.60;0.60;;;4.40;99.90;;;;;;6123207;23;20167;-81
2021/04/05 06:03:10;;;;;;;0.50;0.50;;;2.90;99.90;;;;;;6128611;22;20185;-81
2021/04/05 06:05:44;;;;;;;0.60;0.60;;;2.90;99.90;;;;;;6125590;23;20297;-81
2021/04/05 06:08:35;;;;;;;0.60;0.60;;;3.00;99.90;;;;;;6125657;23;20186;-81
2021/04/05 06:11:14;;;;;;;0.60;0.60;;;3.00;99.90;;;;;;6128424;23;20519;-82
2021/04/05 06:13:51;;;;;;;0.60;0.60;;;2.90;99.90;;;;;;6137163;23;20170;-81
2021/04/05 06:16:31;;;;;;;0.50;0.50;;;3.80;99.90;;;;;;6138553;23;20221;-81
2021/04/05 06:19:15;;;;;;;0.60;0.60;;;3.40;99.90;;;;;;6137121;23;20179;-81
2021/04/05 06:21:51;;;;;;;0.50;0.50;;;4.80;99.90;;;;;;6136359;23;20559;-81
2021/04/05 06:24:28;;;;;;;0.52;0.52;;;3.10;99.90;;;;;;6136834;23;20624;-81
2021/04/05 06:27:04;;;;;;;0.50;0.50;;;2.60;99.90;;;;;;6143460;23;20198;-81
2021/04/05 06:29:53;;;;;;;0.60;0.60;;;2.90;99.90;;;;;;6142371;23;20226;-81
2021/04/05 06:32:31;;;;;;;0.60;0.60;;;3.70;99.90;;;;;;6135968;23;20524;-80
2021/04/05 06:35:16;;;;;;;0.60;0.60;;;4.80;99.90;;;;;;6117186;23;20170;-81
2021/04/05 06:37:47;;;;;;;0.60;0.60;;;3.20;99.90;;;;;;6116770;23;20534;-81
2021/04/05 06:40:17;;;;;;;0.60;0.60;;;5.50;99.90;;;;;;6116636;23;20491;-82
2021/04/05 06:43:12;;;;;;;0.60;0.60;;;3.10;99.90;;;;;;6118912;23;20413;-81
2021/04/05 06:45:50;;;;;;;0.50;0.50;;;3.10;99.90;;;;;;6118497;23;20523;-80
2021/04/05 06:48:42;;;;;;;0.50;0.50;;;3.20;99.90;;;;;;6118354;23;20615;-81
2021/04/05 06:51:20;;;;;;;0.50;0.50;;;3.10;99.90;;;;;;6118791;23;20198;-80
2021/04/05 06:54:02;;;;;;;0.60;0.60;;;3.90;99.90;;;;;;6118895;23;20154;-80
2021/04/05 06:56:38;;;;;;;0.60;0.60;;;2.80;99.90;;;;;;6117690;23;20593;-81
2021/04/05 06:59:21;;;;;;;0.50;0.50;;;2.60;99.90;;;;;;6117970;23;20170;-81
2021/04/05 07:02:07;;;;;;;0.57;0.57;;;2.70;99.90;;;;;;6123922;23;20241;-80
2021/04/05 07:04:47;;;;;;;0.57;0.57;;;4.00;99.90;;;;;;6119873;23;20197;-79
2021/04/05 07:07:25;;;;;;;0.50;0.50;;;2.50;99.90;;;;;;6117458;23;20182;-79
2021/04/05 07:09:57;;;;;;;0.60;0.60;;;2.60;99.90;;;;;;6118096;23;20186;-83
2021/04/05 07:12:42;;;;;;;0.57;0.57;;;2.40;99.90;;;;;;6121658;23;20292;-80
2021/04/05 07:15:17;;;;;;;0.60;0.60;;;2.60;99.90;;;;;;6118439;23;20163;-81
2021/04/05 07:18:01;;;;;;;0.50;0.50;;;2.50;99.90;;;;;;6118266;23;20186;-80
2021/04/05 07:20:35;;;;;;;0.57;0.57;;;2.50;99.90;;;;;;6118244;23;20680;-79
2021/04/05 07:23:17;;;;;;;0.60;0.60;;;2.00;99.90;;;;;;6117806;23;20170;-80
2021/04/05 07:25:52;;;;;;;0.50;0.50;;;2.60;99.90;;;;;;6119185;23;20525;-80
2021/04/05 07:28:24;;;;;;;0.50;0.50;;;2.60;99.90;;;;;;6124506;23;20296;-81
2021/04/05 07:31:02;;;;;;;0.50;0.50;;;2.70;99.90;;;;;;6119503;23;20540;-80
2021/04/05 07:33:36;;;;;;;0.60;0.60;;;2.60;99.90;;;;;;6118587;23;20174;-80
2021/04/05 07:36:12;;;;;;;0.60;0.60;;;2.70;99.90;;;;;;6118109;23;20850;-79
2021/04/05 07:38:51;;;;;;;0.60;0.60;;;2.60;99.90;;;;;;6118557;23;20163;-80
2021/04/05 07:41:26;;;;;;;0.60;0.60;;;2.70;99.90;;;;;;6118875;23;20178;-80
2021/04/05 07:44:10;;;;;;;0.60;0.60;;;2.60;99.90;;;;;;6118335;23;20174;-79
2021/04/05 07:46:42;;;;;;;0.60;0.60;;;2.50;99.90;;;;;;6118530;23;20183;-80
2021/04/05 07:49:13;;;;;;;0.50;0.50;;;2.60;99.90;;;;;;6117963;23;20177;-81
2021/04/05 07:51:47;;;;;;;0.50;0.50;;;2.50;99.90;;;;;;6118362;23;20205;-80
2021/04/05 07:54:15;;;;;;;0.50;0.50;;;2.40;99.90;;;;;;6118459;23;20249;-79
2021/04/05 07:56:50;;;;;;;0.60;0.60;;;3.10;99.90;;;;;;6117990;23;20206;-79
2021/04/05 07:59:28;;;;;;;0.55;0.55;;;2.30;99.90;;;;;;6118216;23;20178;-79
2021/04/05 08:02:01;;;;;;;0.60;0.60;;;2.00;99.90;;;;;;6118064;23;20674;-79
2021/04/05 08:04:39;;;;;;;0.60;0.60;;;2.10;99.90;;;;;;6117960;23;20174;-79
2021/04/05 08:07:10;;;;;;;0.60;0.60;;;2.10;99.90;;;;;;6118220;23;20186;-79
2021/04/05 08:09:43;;;;;;;0.50;0.50;;;2.10;99.90;;;;;;6118205;23;20167;-78
2021/04/05 08:12:21;;;;;;;0.50;0.50;;;2.20;99.90;;;;;;6118334;23;20499;-79
2021/04/05 08:15:02;;;;;;;0.50;0.50;;;2.30;99.90;;;;;;6116728;23;20178;-79
2021/04/05 08:17:39;;;;;;;0.60;0.60;;;2.40;99.90;;;;;;6117988;23;20159;-79
2021/04/05 08:20:11;;;;;;;0.60;0.60;;;2.40;99.90;;;;;;6118476;23;20499;-79
2021/04/05 08:22:47;;;;;;;0.50;0.50;;;2.60;99.90;;;;;;6111254;23;20186;-79
2021/04/05 08:25:25;;;;;;;0.60;0.60;;;2.60;99.90;;;;;;6118822;23;20241;-79
2021/04/05 08:28:02;;;;;;;0.50;0.50;;;2.70;99.90;;;;;;6118222;23;20182;-80
2021/04/05 08:30:46;;;;;;;0.60;0.60;;;2.80;99.90;;;;;;6123278;23;20170;-84
2021/04/05 08:33:28;;;;;;;0.55;0.55;;;2.90;99.90;;;;;;6128493;23;20155;-83
2021/04/05 08:36:06;;;;;;;0.50;0.50;;;2.20;99.90;;;;;;6132450;23;20209;-82
2021/04/05 08:38:42;;;;;;;0.60;0.60;;;2.60;99.90;;;;;;6124465;23;20213;-80
2021/04/05 08:41:19;;;;;;;0.60;0.60;;;2.50;99.90;;;;;;6118403;23;20166;-80
2021/04/05 08:44:00;;;;;;;0.60;0.60;;;2.30;99.90;;;;;;6125703;23;20158;-86
2021/04/05 08:46:31;;;;;;;0.50;0.50;;;2.20;99.90;;;;;;6121136;23;20233;-81
2021/04/05 08:49:00;;;;;;;0.55;0.55;;;2.20;99.90;;;;;;6120244;23;20179;-83
2021/04/05 08:51:32;;;;;;;0.60;0.60;;;4.50;99.90;;;;;;6120410;22;20226;-80
2021/04/05 08:54:01;;;;;;;0.60;0.60;;;2.40;99.90;;;;;;6118863;23;20185;-81
2021/04/05 08:56:32;;;;;;;0.50;0.50;;;2.70;99.90;;;;;;6119681;23;20206;-81
2021/04/05 08:59:04;;;;;;;0.60;0.60;;;3.50;99.90;;;;;;6123532;23;20175;-83
2021/04/05 09:01:40;;;;;;;0.50;0.50;;;4.20;99.90;;;;;;6115832;23;20328;-81
2021/04/05 09:04:08;;;;;;;0.50;0.50;;;2.60;99.90;;;;;;6126428;23;20196;-84
2021/04/05 09:06:48;;;;;;;0.60;0.60;;;2.50;99.90;;;;;;6120042;23;20202;-81
2021/04/05 09:09:16;;;;;;;0.52;0.52;;;2.10;99.90;;;;;;6118420;23;20163;-81
2021/04/05 09:11:43;;;;;;;0.60;0.60;;;;;;;;;;6121109;23;20182;-80
2021/04/05 09:14:13;;;;;;;0.60;0.60;;;2.40;99.90;;;;;;6123063;23;20680;-80
2021/04/05 09:17:02;;;;;;;0.60;0.60;;;2.50;99.90;;;;;;6120979;23;20165;-81
2021/04/05 09:19:41;;;;;;;0.60;0.60;;;2.20;99.90;;;;;;6117105;23;20159;-81
2021/04/05 09:22:35;;;;;;;0.60;0.60;;;2.20;99.90;;;;;;6117417;23;20189;-81
2021/04/05 09:25:13;;;;;;;0.60;0.60;;;2.00;99.90;;;;;;6117337;23;20469;-81
2021/04/05 09:28:11;;;;;;;0.60;0.60;;;1.80;99.90;;;;;;6117467;23;20263;-81
2021/04/05 09:30:48;;;;;;;0.57;0.57;;;1.80;99.90;;;;;;6116511;23;20514;-80
2021/04/05 09:33:57;;;;;;;0.60;0.60;;;1.80;99.90;;;;;;6116309;23;20177;-81
2021/04/05 09:36:49;;;;;;;0.52;0.52;;;1.80;99.90;;;;;;6117133;23;20175;-80
2021/04/05 09:39:46;;;;;;;0.60;0.60;;;2.00;99.90;;;;;;6100786;23;20186;-80
2021/04/05 09:42:27;;;;;;;0.60;0.60;;;2.10;99.90;;;;;;6117312;23;20178;-81
2021/04/05 09:45:03;;;;;;;0.60;0.60;;;2.00;99.90;;;;;;6125847;23;20220;-81
2021/04/05 09:48:03;;;;;;;0.50;0.50;;;0.50;99.90;;;;;;6118779;23;20202;-81
2021/04/05 09:50:48;;;;;;;0.60;0.60;;;0.20;99.90;;;;;;6119259;23;20177;-81
2021/04/05 09:53:41;;;;;;;0.60;0.60;;;0.10;99.90;;;;;;6118639;23;20163;-81
2021/04/05 09:56:10;;;;;;;0.50;0.50;;;0.10;99.90;;;;;;6107753;23;20211;-81
2021/04/05 09:58:40;;;;;;;0.50;0.50;;;0.30;99.90;;;;;;6121249;23;20182;-79
2021/04/05 10:01:14;;;;;;;0.55;0.55;;;0.50;99.90;;;;;;6117604;23;20972;-82
2021/04/05 10:03:43;;;;;;;0.60;0.60;;;1.00;99.90;;;;;;6123761;23;20170;-80
2021/04/05 10:06:14;;;;;;;0.60;0.60;;;1.00;99.90;;;;;;6117424;23;20815;-81
2021/04/05 10:08:43;;;;;;;0.60;0.60;;;1.20;99.90;;;;;;6117262;23;20162;-80
2021/04/05 10:11:11;;;;;;;0.60;0.60;;;1.40;99.90;;;;;;6117315;23;20683;-80
2021/04/05 10:13:45;;;;;;;0.60;0.60;;;1.60;99.90;;;;;;6117107;23;20252;-81
2021/04/05 10:16:11;;;;;;;0.60;0.60;;;1.70;99.90;;;;;;6114267;23;20896;-81
2021/04/05 10:18:45;;;;;;;0.60;0.60;;;1.90;99.90;;;;;;6117274;23;20173;-81
2021/04/05 10:21:13;;;;;;;0.57;0.57;;;2.00;99.90;;;;;;6117845;23;20170;-81
2021/04/05 10:23:39;;;;;;;0.55;0.55;;;2.20;99.90;;;;;;6117773;23;20185;-81
2021/04/05 10:26:10;;;;;;;0.60;0.60;;;2.30;99.90;;;;;;6117750;23;20204;-81
2021/04/05 10:28:37;;;;;;;0.50;0.50;;;2.50;99.90;;;;;;6117745;23;20553;-81
2021/04/05 10:31:06;;;;;;;0.50;0.50;;;2.60;99.90;;;;;;6118963;23;20178;-79
2021/04/05 10:33:35;;;;;;;0.60;0.60;;;2.60;99.90;;;;;;6117490;23;20178;-78
2021/04/05 10:36:06;;;;;;;0.60;0.60;;;2.60;99.90;;;;;;6117767;23;20182;-82
2021/04/05 10:38:35;;;;;;;0.60;0.60;;;2.60;99.90;;;;;;6125701;23;20159;-82
2021/04/05 10:41:09;;;;;;;0.60;0.60;;;4.10;99.90;;;;;;6132438;23;20183;-83
2021/04/05 10:43:39;;;;;;;0.60;0.60;;;2.70;99.90;;;;;;6126090;23;20595;-80
2021/04/05 10:46:13;;;;;;;0.60;0.60;;;2.40;99.90;;;;;;6118740;23;20178;-80
2021/04/05 10:48:42;;;;;;;0.60;0.60;;;2.10;99.90;;;;;;6116873;23;20174;-80
2021/04/05 10:51:11;;;;;;;0.60;0.60;;;1.50;99.90;;;;;;6120854;23;20743;-82
2021/04/05 10:53:43;;;;;;;0.60;0.60;;;1.30;99.90;;;;;;6141708;23;20185;-82
2021/04/05 10:56:17;;;;;;;0.60;0.60;;;1.40;99.90;;;;;;6137251;23;20209;-82
2021/04/05 10:58:50;;;;;;;0.60;0.60;;;1.60;99.90;;;;;;6140652;23;20154;-81
2021/04/05 11:01:26;;;;;;;0.60;0.60;;;1.70;99.90;;;;;;6136652;22;20198;-83
2021/04/05 11:03:54;;;;;;;0.60;0.60;;;4.10;99.90;;;;;;6121768;23;20178;-80
2021/04/05 11:06:22;;;;;;;0.60;0.60;;;1.80;99.90;;;;;;6116336;23;20178;-79
2021/04/05 11:08:52;;;;;;;0.60;0.60;;;2.10;99.90;;;;;;6116990;23;20552;-78
2021/04/05 11:11:22;;;;;;;0.60;0.60;;;2.20;99.90;;;;;;6116410;23;20247;-80
2021/04/05 11:13:51;;;;;;;0.60;0.60;;;2.50;99.90;;;;;;6116259;23;20171;-79
2021/04/05 11:16:19;;;;;;;0.60;0.60;;;2.80;99.90;;;;;;6115260;23;20182;-81
2021/04/05 11:18:50;;;;;;;0.50;0.50;;;3.20;99.90;;;;;;6116250;23;20170;-79
2021/04/05 11:21:19;;;;;;;0.60;0.60;;;3.30;99.90;;;;;;6121160;23;20217;-83
2021/04/05 11:23:49;;;;;;;0.60;0.60;;;3.20;99.90;;;;;;6117747;23;20182;-80
2021/04/05 11:26:25;;;;;;;0.50;0.50;;;3.20;99.90;;;;;;6116529;23;20201;-80
2021/04/05 11:28:55;;;;;;;0.60;0.60;;;3.60;99.90;;;;;;6116485;23;20174;-83
2021/04/05 11:31:26;;;;;;;0.60;0.60;;;3.80;99.90;;;;;;6136139;23;20175;-84
2021/04/05 11:33:56;;;;;;;0.57;0.57;;;3.70;99.90;;;;;;6132348;23;20519;-83
2021/04/05 11:36:33;;;;;;;0.52;0.52;;;3.20;99.90;;;;;;6129088;23;20181;-83
2021/04/05 11:39:05;;;;;;;0.50;0.50;;;3.00;99.90;;;;;;6128199;23;20176;-83
2021/04/05 11:41:32;;;;;;;0.55;0.55;;;2.60;99.90;;;;;;6122949;23;20600;-82
2021/04/05 11:44:01;;;;;;;0.60;0.60;;;2.70;99.90;;;;;;6123337;23;20545;-81
2021/04/05 11:46:29;;;;;;;0.60;0.60;;;2.30;99.90;;;;;;6122244;23;20194;-82
2021/04/05 11:49:06;;;;;;;0.60;0.60;;;2.00;99.90;;;;;;6124546;23;20179;-82
2021/04/05 11:51:39;;;;;;;0.60;0.60;;;2.20;99.90;;;;;;6118656;23;20195;-82
2021/04/05 11:54:09;;;;;;;0.60;0.60;;;2.90;99.90;;;;;;6123296;23;20167;-83
2021/04/05 11:56:40;;;;;;;0.60;0.60;;;3.40;99.90;;;;;;6124807;23;20862;-83
2021/04/05 11:59:13;;;;;;;0.50;0.50;;;2.30;99.90;;;;;;6123124;23;20601;-83
2021/04/05 12:01:46;;;;;;;0.60;0.60;;;5.50;99.90;;;;;;6131974;23;20171;-83
2021/04/05 12:04:17;;;;;;;0.60;0.60;;;4.90;99.90;;;;;;6130764;23;20162;-82
2021/04/05 12:06:48;;;;;;;0.60;0.60;;;7.30;99.90;;;;;;6131250;23;20196;-82
2021/04/05 12:09:22;;;;;;;0.60;0.60;;;3.50;99.90;;;;;;6133099;23;20155;-83
2021/04/05 12:11:54;;;;;;;0.60;0.60;;;4.20;99.90;;;;;;6140315;23;20155;-83
2021/04/05 12:14:26;;;;;;;0.50;0.50;;;4.40;99.90;;;;;;6133639;23;20185;-83
2021/04/05 12:16:59;;;;;;;0.60;0.60;;;4.70;99.90;;;;;;6138927;23;20174;-83
2021/04/05 12:19:33;;;;;;;0.60;0.60;;;4.70;99.90;;;;;;6145912;23;20178;-84
2021/04/05 12:22:03;;;;;;;0.60;0.60;;;4.20;99.90;;;;;;6145118;23;20166;-83
2021/04/05 12:24:37;;;;;;;0.57;0.57;;;3.70;99.90;;;;;;6143417;23;20201;-83
2021/04/05 12:27:11;;;;;;;0.60;0.60;;;4.30;99.90;;;;;;6146961;23;20194;-84
2021/04/05 12:29:43;;;;;;;0.60;0.60;;;3.90;99.90;;;;;;6142718;23;20188;-82
2021/04/05 12:32:21;;;;;;;0.60;0.60;;;4.30;99.90;;;;;;6139898;22;20360;-83
2021/04/05 12:35:06;;;;;;;0.60;0.60;;;4.50;99.90;;;;;;6142972;23;20182;-83
2021/04/05 12:37:33;;;;;;;0.60;0.60;;;;;;;;;;6132988;22;20292;-83
2021/04/05 12:40:04;;;;;;;0.60;0.60;;;4.60;99.90;;;;;;6120859;23;20167;-83
2021/04/05 12:42:36;;;;;;;0.60;0.60;;;4.00;99.90;;;;;;6118353;23;20167;-83
2021/04/05 12:45:07;;;;;;;0.60;0.60;;;4.30;99.90;;;;;;6117623;23;20163;-82
2021/04/05 12:47:35;;;;;;;0.60;0.60;;;4.30;99.90;;;;;;6120444;23;20204;-82
2021/04/05 12:50:05;;;;;;;0.60;0.60;;;4.00;99.90;;;;;;6119197;23;20185;-83
2021/04/05 12:52:41;;;;;;;0.60;0.60;;;4.20;99.90;;;;;;6125893;23;20281;-81
2021/04/05 12:55:12;;;;;;;0.60;0.60;;;8.50;99.90;;;;;;6124361;23;20171;-82
2021/04/05 12:57:38;;;;;;;0.60;0.60;;;5.20;99.90;;;;;;6120113;23;20198;-82
2021/04/05 13:00:08;;;;;;;0.60;0.60;;;5.10;99.90;;;;;;6120300;23;20209;-81
2021/04/05 13:02:38;;;;;;;0.60;0.60;;;3.80;99.90;;;;;;6116920;23;20548;-81
2021/04/05 13:05:11;;;;;;;0.60;0.60;;;2.40;99.90;;;;;;6122206;23;20257;-82
2021/04/05 13:07:47;;;;;;;0.60;0.60;;;1.40;99.90;;;;;;6122719;23;20191;-82
2021/04/05 13:10:24;;;;;;;0.60;0.60;;;1.40;99.90;;;;;;6122207;23;20170;-85
2021/04/05 13:12:55;;;;;;;0.60;0.60;;;1.80;99.90;;;;;;6118358;23;20193;-86
2021/04/05 13:15:24;;;;;;;0.60;0.60;;;2.40;99.90;;;;;;6117900;23;20167;-82
2021/04/05 13:17:54;;;;;;;0.60;0.60;;;2.80;99.90;;;;;;6117955;23;20184;-84
2021/04/05 13:20:31;;;;;;;0.60;0.60;;;3.30;99.90;;;;;;6118741;23;20189;-83
2021/04/05 13:23:01;;;;;;;0.60;0.60;;;3.20;99.90;;;;;;6118968;23;20391;-82